Time;durP1;ratioP1;P1;durP2;ratioP2;P2;SDS_P1;SDS_P2;PMS_P1;PMS_P2;Temp;Humidity;BMP_temperature;BMP_pressure;BME280_temperature;BME280_humidity;BME280_pressure;Samples;Min_cycle;Max_cycle;Signal;HPM_P1;HPM_P2
2022/10/20 00:01:07;;;;;;;34.10;30.33;;;;;;;;;;5078304;28;20120;-71
2022/10/20 00:03:33;;;;;;;33.90;30.40;;;;;;;;;;5081510;28;20450;-71
2022/10/20 00:06:25;;;;;;;30.85;27.60;;;;;;;;;;5081214;28;20047;-71
2022/10/20 00:08:51;;;;;;;28.48;24.23;;;;;;;;;;5079409;28;20136;-73
2022/10/20 00:11:17;;;;;;;28.55;25.25;;;;;;;;;;5081864;28;20028;-73
2022/10/20 00:13:44;;;;;;;33.33;30.02;;;;;;;;;;5078273;28;20028;-71
2022/10/20 00:16:10;;;;;;;54.88;45.70;;;;;;;;;;5072650;28;20036;-71
2022/10/20 00:18:36;;;;;;;68.05;49.47;;;;;;;;;;5081645;28;20063;-71
2022/10/20 00:21:06;;;;;;;66.65;48.38;;;;;;;;;;5081809;28;20435;-72
2022/10/20 00:23:31;;;;;;;58.58;49.83;;;;;;;;;;5075063;28;20024;-71
2022/10/20 00:26:04;;;;;;;57.30;50.40;;;;;;;;;;5077695;28;20024;-71
2022/10/20 00:28:29;;;;;;;56.72;47.95;;;;;;;;;;5078685;28;20020;-72
2022/10/20 00:30:55;;;;;;;51.80;45.03;;;;;;;;;;5070252;28;20778;-73
2022/10/20 00:33:21;;;;;;;46.95;40.05;;;;;;;;;;5079220;28;20169;-72
2022/10/20 00:35:46;;;;;;;48.65;36.78;;;;;;;;;;5081372;28;20051;-71
2022/10/20 00:38:11;;;;;;;40.28;35.88;;;;;;;;;;5081631;28;20480;-71
2022/10/20 00:40:37;;;;;;;39.25;35.03;;;;;;;;;;5081287;28;20455;-71
2022/10/20 00:43:02;;;;;;;37.47;33.45;;;;;;;;;;5080339;28;20028;-74
2022/10/20 00:45:28;;;;;;;35.55;31.80;;;;;;;;;;5080655;28;20024;-72
2022/10/20 00:47:59;;;;;;;36.13;31.05;;;;;;;;;;5080830;28;20048;-72
2022/10/20 00:50:31;;;;;;;33.85;30.17;;;;;;;;;;5071465;28;20024;-72
2022/10/20 00:52:58;;;;;;;39.25;31.50;;;;;;;;;;5068670;28;20032;-72
2022/10/20 00:55:25;;;;;;;35.90;32.08;;;;;;;;;;5072313;28;20035;-73
2022/10/20 00:57:51;;;;;;;34.90;30.10;;;;;;;;;;5080840;28;20031;-72
2022/10/20 01:00:16;;;;;;;31.65;28.27;;;;;;;;;;5075323;28;20470;-71
2022/10/20 01:02:42;;;;;;;30.08;26.83;;;;;;;;;;5068434;28;20028;-72
2022/10/20 01:05:08;;;;;;;31.10;27.00;;;;;;;;;;5080304;28;20059;-71
2022/10/20 01:07:33;;;;;;;32.95;29.58;;;;;;;;;;5080755;28;20099;-71
2022/10/20 01:09:59;;;;;;;31.65;28.35;;;;;;;;;;5080609;28;20077;-73
2022/10/20 01:12:24;;;;;;;30.90;27.70;;;;;;;;;;5079796;28;20451;-73
2022/10/20 01:15:06;;;;;;;33.63;29.92;;;;;;;;;;5080147;28;20024;-73
2022/10/20 01:17:32;;;;;;;34.50;30.67;;;;;;;;;;5078157;28;20020;-72
2022/10/20 01:19:57;;;;;;;31.42;28.08;;;;;;;;;;5080668;28;20092;-74
2022/10/20 01:22:41;;;;;;;30.45;27.30;;;;;;;;;;5076689;28;20443;-73
2022/10/20 01:25:12;;;;;;;33.50;27.27;;;;;;;;;;5072708;28;20040;-71
2022/10/20 01:27:42;;;;;;;29.67;26.63;;;;;;;;;;5080347;28;21000;-71
2022/10/20 01:30:09;;;;;;;30.35;27.08;;;;;;;;;;5080334;28;20031;-71
2022/10/20 01:32:53;;;;;;;29.15;26.10;;;;;;;;;;5080451;28;20085;-71
2022/10/20 01:35:18;;;;;;;30.00;26.85;;;;;;;;;;5079278;28;20274;-72
2022/10/20 01:37:47;;;;;;;29.80;26.55;;;;;;;;;;5078733;28;20020;-73
2022/10/20 01:40:19;;;;;;;35.95;32.10;;;;;;;;;;5071294;28;20028;-74
2022/10/20 01:42:46;;;;;;;32.50;28.98;;;;;;;;;;5078158;28;20028;-71
2022/10/20 01:45:12;;;;;;;30.65;27.52;;;;;;;;;;5080015;28;20461;-73
2022/10/20 01:47:38;;;;;;;29.02;25.75;;;;;;;;;;5080034;28;20363;-72
2022/10/20 01:50:04;;;;;;;26.52;23.90;;;;;;;;;;5079713;28;20021;-72
2022/10/20 01:52:30;;;;;;;26.45;23.70;;;;;;;;;;5080465;28;20036;-73
2022/10/20 01:54:55;;;;;;;26.63;23.73;;;;;;;;;;5079537;28;20032;-73
2022/10/20 01:57:24;;;;;;;27.48;24.48;;;;;;;;;;5078534;28;20028;-72
2022/10/20 01:59:58;;;;;;;28.33;25.50;;;;;;;;;;5080076;28;20072;-71
2022/10/20 02:02:44;;;;;;;29.83;26.20;;;;;;;;;;5079505;28;20077;-72
2022/10/20 02:05:09;;;;;;;25.85;22.98;;;;;;;;;;5071987;28;20147;-71
2022/10/20 02:07:34;;;;;;;28.10;24.70;;;;;;;;;;5079269;28;20103;-73
2022/10/20 02:10:05;;;;;;;33.55;28.73;;;;;;;;;;5080405;28;20124;-71
2022/10/20 02:12:33;;;;;;;30.67;27.52;;;;;;;;;;5079605;28;20081;-71
2022/10/20 02:14:58;;;;;;;37.42;29.73;;;;;;;;;;5080441;28;20556;-72
2022/10/20 02:17:24;;;;;;;38.38;30.40;;;;;;;;;;5079078;28;20024;-72
2022/10/20 02:19:51;;;;;;;93.28;53.10;;;;;;;;;;5079807;28;20023;-72
2022/10/20 02:22:16;;;;;;;76.90;47.38;;;;;;;;;;5078847;28;20020;-73
2022/10/20 02:24:42;;;;;;;58.05;40.70;;;;;;;;;;5079992;28;20111;-72
2022/10/20 02:27:16;;;;;;;28.38;25.33;;;;;;;;;;5071403;28;20024;-72
2022/10/20 02:29:43;;;;;;;29.98;25.48;;;;;;;;;;5076652;28;20028;-71
2022/10/20 02:32:10;;;;;;;31.92;28.63;;;;;;;;;;5078421;28;20817;-71
2022/10/20 02:34:35;;;;;;;30.63;27.40;;;;;;;;;;5079563;28;20031;-72
2022/10/20 02:37:01;;;;;;;30.80;27.60;;;;;;;;;;5078845;28;20024;-73
2022/10/20 02:39:26;;;;;;;29.90;26.73;;;;;;;;;;5079024;28;20470;-71
2022/10/20 02:41:51;;;;;;;32.25;28.42;;;;;;;;;;5079047;28;20117;-74
2022/10/20 02:44:17;;;;;;;21.35;19.15;;;;;;;;;;5079704;28;20042;-72
2022/10/20 02:46:42;;;;;;;21.00;16.85;;;;;;;;;;5077650;28;20392;-72
2022/10/20 02:49:08;;;;;;;20.58;18.35;;;;;;;;;;5077190;28;20440;-72
2022/10/20 02:51:33;;;;;;;20.50;18.30;;;;;;;;;;5071806;28;20016;-73
2022/10/20 02:53:58;;;;;;;23.27;20.92;;;;;;;;;;5075856;28;20020;-71
2022/10/20 02:56:24;;;;;;;22.70;20.35;;;;;;;;;;5073285;28;20101;-72
2022/10/20 02:58:49;;;;;;;23.48;21.00;;;;;;;;;;5078972;28;20043;-72
2022/10/20 03:01:14;;;;;;;23.98;21.63;;;;;;;;;;5079513;28;20052;-71
2022/10/20 03:03:40;;;;;;;24.23;21.70;;;;;;;;;;5078462;28;20403;-71
2022/10/20 03:06:06;;;;;;;27.20;24.52;;;;;;;;;;5079195;28;20036;-70
2022/10/20 03:08:32;;;;;;;39.72;32.08;;;;;;;;;;5081485;28;20093;-71
2022/10/20 03:10:57;;;;;;;29.88;25.83;;;;;;;;;;5083192;28;20032;-73
2022/10/20 03:13:22;;;;;;;25.35;22.63;;;;;;;;;;5082956;28;20032;-72
2022/10/20 03:15:48;;;;;;;27.73;24.88;;;;;;;;;;5074480;28;20046;-71
2022/10/20 03:18:13;;;;;;;28.17;24.92;;;;;;;;;;5082187;28;20032;-73
2022/10/20 03:20:38;;;;;;;66.80;59.38;;;;;;;;;;5082298;28;20358;-71
2022/10/20 03:23:04;;;;;;;91.85;82.90;;;;;;;;;;5082976;28;20090;-72
2022/10/20 03:25:30;;;;;;;40.72;33.90;;;;;;;;;;5083006;28;20031;-71
2022/10/20 03:27:55;;;;;;;39.90;32.35;;;;;;;;;;5082377;28;20024;-72
2022/10/20 03:30:21;;;;;;;44.08;32.72;;;;;;;;;;5083301;28;20026;-71
2022/10/20 03:32:46;;;;;;;26.88;24.08;;;;;;;;;;5082502;28;21621;-73
2022/10/20 03:35:11;;;;;;;47.88;37.33;;;;;;;;;;5082208;28;20036;-73
2022/10/20 03:37:37;;;;;;;40.72;34.13;;;;;;;;;;5083028;28;20028;-74
2022/10/20 03:40:02;;;;;;;62.70;49.05;;;;;;;;;;5075036;28;20954;-73
2022/10/20 03:42:27;;;;;;;47.88;37.80;;;;;;;;;;5078797;28;20027;-72
2022/10/20 03:44:53;;;;;;;33.05;29.60;;;;;;;;;;5082500;28;20032;-71
2022/10/20 03:47:18;;;;;;;27.80;24.90;;;;;;;;;;5082428;28;20032;-71
2022/10/20 03:49:44;;;;;;;29.10;26.10;;;;;;;;;;5082257;28;20048;-71
2022/10/20 03:52:09;;;;;;;29.67;25.05;;;;;;;;;;5081954;28;20103;-73
2022/10/20 03:54:35;;;;;;;27.92;25.13;;;;;;;;;;5080619;28;20055;-71
2022/10/20 03:57:00;;;;;;;24.55;22.02;;;;;;;;;;5082495;28;20027;-73
2022/10/20 03:59:26;;;;;;;303.27;228.85;;;;;;;;;;5081285;28;20039;-70
2022/10/20 04:01:52;;;;;;;91.18;69.28;;;;;;;;;;5070098;28;20583;-72
2022/10/20 04:04:17;;;;;;;51.97;42.63;;;;;;;;;;5069572;28;20486;-71
2022/10/20 04:06:43;;;;;;;33.75;30.08;;;;;;;;;;5070335;28;20044;-71
2022/10/20 04:09:08;;;;;;;29.20;26.17;;;;;;;;;;5069555;28;20111;-71
2022/10/20 04:11:34;;;;;;;27.35;24.63;;;;;;;;;;5069338;28;20043;-71
2022/10/20 04:13:59;;;;;;;27.73;25.02;;;;;;;;;;5068714;28;20040;-73
2022/10/20 04:16:24;;;;;;;31.25;28.05;;;;;;;;;;5070706;28;20039;-71
2022/10/20 04:18:51;;;;;;;37.00;33.08;;;;;;;;;;5078357;28;20429;-74
2022/10/20 04:21:16;;;;;;;42.63;38.13;;;;;;;;;;5081486;28;20382;-73
2022/10/20 04:23:41;;;;;;;48.35;43.08;;;;;;;;;;5078328;28;20032;-73
2022/10/20 04:26:10;;;;;;;44.42;39.75;;;;;;;;;;5069608;28;20455;-72
2022/10/20 04:28:36;;;;;;;34.58;30.00;;;;;;;;;;5073823;28;20020;-74
2022/10/20 04:31:01;;;;;;;59.10;52.70;;;;;;;;;;5072322;28;20032;-73
2022/10/20 04:33:27;;;;;;;47.03;41.80;;;;;;;;;;5080927;28;20047;-72
2022/10/20 04:36:18;;;;;;;99.88;88.97;;;;;;;;;;5082133;28;20097;-72
2022/10/20 04:38:44;;;;;;;96.95;86.32;;;;;;;;;;5078116;28;20043;-72
2022/10/20 04:41:10;;;;;;;86.25;76.85;;;;;;;;;;5082445;28;20028;-74
2022/10/20 04:43:35;;;;;;;86.65;77.13;;;;;;;;;;5082102;28;20340;-75
2022/10/20 04:46:02;;;;;;;90.38;76.20;;;;;;;;;;5069314;28;20040;-77
2022/10/20 04:48:27;;;;;;;69.55;62.17;;;;;;;;;;5068588;28;20052;-72
2022/10/20 04:51:03;;;;;;;68.05;60.65;;;;;;;;;;5067819;28;20020;-72
2022/10/20 04:53:29;;;;;;;102.32;91.55;;;;;;;;;;5068879;28;20085;-75
2022/10/20 04:55:55;;;;;;;88.95;79.53;;;;;;;;;;5068660;28;20439;-75
2022/10/20 04:58:20;;;;;;;85.22;76.32;;;;;;;;;;5068529;28;20470;-75
2022/10/20 05:00:46;;;;;;;102.57;92.07;;;;;;;;;;5069131;28;20036;-75
2022/10/20 05:03:11;;;;;;;92.45;83.18;;;;;;;;;;5069510;28;20326;-77
2022/10/20 05:05:36;;;;;;;75.32;67.78;;;;;;;;;;5069456;28;20048;-76
2022/10/20 05:08:02;;;;;;;61.53;55.22;;;;;;;;;;5069700;28;20538;-73
2022/10/20 05:10:27;;;;;;;63.55;56.67;;;;;;;;;;5073211;28;20105;-77
2022/10/20 05:12:52;;;;;;;52.78;47.38;;;;;;;;;;5071834;28;20024;-77
2022/10/20 05:15:18;;;;;;;44.47;40.00;;;;;;;;;;5077638;28;20127;-77
2022/10/20 05:17:43;;;;;;;45.22;40.35;;;;;;;;;;5079947;28;20409;-73
2022/10/20 05:20:08;;;;;;;46.60;41.53;;;;;;;;;;5069649;28;20024;-74
2022/10/20 05:22:34;;;;;;;69.47;52.70;;;;;;;;;;5068175;28;20035;-74
2022/10/20 05:24:59;;;;;;;52.15;45.35;;;;;;;;;;5069187;28;20024;-77
2022/10/20 05:27:25;;;;;;;54.03;47.13;;;;;;;;;;5071818;28;20080;-81
2022/10/20 05:29:50;;;;;;;55.03;49.13;;;;;;;;;;5072514;28;20423;-79
2022/10/20 05:32:15;;;;;;;44.47;39.72;;;;;;;;;;5078437;28;20028;-72
2022/10/20 05:34:42;;;;;;;73.75;65.85;;;;;;;;;;5071394;28;20442;-72
2022/10/20 05:37:08;;;;;;;57.50;51.50;;;;;;;;;;5078479;28;20514;-74
2022/10/20 05:39:33;;;;;;;51.42;44.08;;;;;;;;;;5073840;28;20107;-79
2022/10/20 05:41:58;;;;;;;46.05;40.97;;;;;;;;;;5080824;28;20497;-74
2022/10/20 05:44:24;;;;;;;46.00;41.20;;;;;;;;;;5081235;28;20028;-75
2022/10/20 05:46:49;;;;;;;42.72;38.08;;;;;;;;;;5068578;28;20043;-76
2022/10/20 05:49:16;;;;;;;55.40;49.65;;;;;;;;;;5072387;28;20105;-77
2022/10/20 05:51:42;;;;;;;64.32;53.15;;;;;;;;;;5081947;28;20028;-76
2022/10/20 05:54:09;;;;;;;45.83;41.20;;;;;;;;;;5081798;28;20024;-75
2022/10/20 05:56:34;;;;;;;40.83;36.38;;;;;;;;;;5081851;28;20050;-76
2022/10/20 05:59:00;;;;;;;45.83;40.42;;;;;;;;;;5079451;28;20438;-78
2022/10/20 06:01:27;;;;;;;40.88;36.45;;;;;;;;;;5069562;28;20063;-78
2022/10/20 06:03:57;;;;;;;45.70;40.90;;;;;;;;;;5075083;28;20034;-76
2022/10/20 06:06:26;;;;;;;59.47;50.33;;;;;;;;;;5071029;28;20097;-76
2022/10/20 06:08:52;;;;;;;;;;;;;;;;;;5080967;28;20028;-78
2022/10/20 06:11:18;;;;;;;43.80;39.17;;;;;;;;;;5080870;28;19962;-76
2022/10/20 06:13:43;;;;;;;51.83;43.30;;;;;;;;;;5080864;28;20118;-76
2022/10/20 06:16:10;;;;;;;41.92;34.50;;;;;;;;;;5080004;28;20139;-75
2022/10/20 06:18:37;;;;;;;110.68;86.28;;;;;;;;;;5082639;28;20023;-77
2022/10/20 06:21:07;;;;;;;113.30;91.68;;;;;;;;;;5082225;28;20111;-76
2022/10/20 06:23:32;;;;;;;92.35;74.03;;;;;;;;;;5082039;28;20126;-76
2022/10/20 06:26:05;;;;;;;142.30;112.45;;;;;;;;;;5081886;28;20067;-75
2022/10/20 06:28:32;;;;;;;94.88;79.30;;;;;;;;;;5081507;28;20111;-76
2022/10/20 06:30:58;;;;;;;60.65;50.00;;;;;;;;;;5081036;28;20328;-77
2022/10/20 06:33:23;;;;;;;72.15;56.38;;;;;;;;;;5080640;28;20031;-76
2022/10/20 06:35:49;;;;;;;55.95;49.35;;;;;;;;;;5082455;28;20111;-77
2022/10/20 06:38:14;;;;;;;47.20;42.10;;;;;;;;;;5081174;28;20722;-75
2022/10/20 06:40:39;;;;;;;58.95;50.83;;;;;;;;;;5082139;28;20043;-75
2022/10/20 06:43:05;;;;;;;58.30;48.97;;;;;;;;;;5082933;28;20101;-75
2022/10/20 06:45:30;;;;;;;52.28;46.45;;;;;;;;;;5085610;28;20111;-75
2022/10/20 06:47:55;;;;;;;37.72;32.50;;;;;;;;;;5085481;28;20048;-75
2022/10/20 06:50:21;;;;;;;23.83;21.40;;;;;;;;;;5085393;28;20431;-76
2022/10/20 06:52:46;;;;;;;18.45;15.80;;;;;;;;;;5085841;28;20024;-76
2022/10/20 06:55:11;;;;;;;18.35;14.30;;;;;;;;;;5085726;28;20374;-74
2022/10/20 06:57:37;;;;;;;12.82;11.52;;;;;;;;;;5086345;28;20471;-79
2022/10/20 07:00:03;;;;;;;23.50;14.88;;;;;;;;;;5084786;28;20035;-75
2022/10/20 07:02:28;;;;;;;13.07;11.70;;;;;;;;;;5086088;28;20054;-75
2022/10/20 07:04:54;;;;;;;13.88;12.13;;;;;;;;;;5083400;28;20317;-73
2022/10/20 07:07:19;;;;;;;12.02;10.80;;;;;;;;;;5085444;28;20024;-74
2022/10/20 07:09:44;;;;;;;13.05;11.75;;;;;;;;;;5085069;28;20024;-75
2022/10/20 07:12:10;;;;;;;17.40;13.10;;;;;;;;;;5083561;28;20028;-76
2022/10/20 07:14:36;;;;;;;13.20;11.75;;;;;;;;;;5084230;28;20032;-76
2022/10/20 07:17:02;;;;;;;11.90;10.68;;;;;;;;;;5084863;28;20024;-75
2022/10/20 07:19:27;;;;;;;11.27;10.23;;;;;;;;;;5084872;28;20423;-76
2022/10/20 07:21:52;;;;;;;13.32;9.13;;;;;;;;;;5084999;28;20028;-75
2022/10/20 07:24:18;;;;;;;12.70;9.98;;;;;;;;;;5084010;28;20032;-74
2022/10/20 07:26:43;;;;;;;16.25;11.80;;;;;;;;;;5083917;28;20039;-76
2022/10/20 07:29:09;;;;;;;15.30;11.73;;;;;;;;;;5083896;28;20051;-76
2022/10/20 07:31:36;;;;;;;16.15;12.82;;;;;;;;;;5084958;28;20027;-77
2022/10/20 07:34:02;;;;;;;12.45;10.27;;;;;;;;;;5083134;28;20559;-75
2022/10/20 07:36:29;;;;;;;10.52;9.07;;;;;;;;;;5084629;28;20034;-74
2022/10/20 07:38:55;;;;;;;9.70;8.70;;;;;;;;;;5083985;28;20057;-76
2022/10/20 07:41:20;;;;;;;10.13;9.05;;;;;;;;;;5084859;28;20020;-75
2022/10/20 07:43:45;;;;;;;10.07;9.05;;;;;;;;;;5078552;28;20316;-75
2022/10/20 07:46:11;;;;;;;10.32;9.10;;;;;;;;;;5073172;28;20028;-77
2022/10/20 07:48:37;;;;;;;12.23;8.43;;;;;;;;;;5081131;28;20058;-77
2022/10/20 07:51:33;;;;;;;11.13;8.00;;;;;;;;;;5081491;28;20024;-75
2022/10/20 07:54:02;;;;;;;9.15;7.75;;;;;;;;;;5042255;28;20380;-73
2022/10/20 07:56:28;;;;;;;8.87;7.13;;;;;;;;;;5042340;28;20043;-74
2022/10/20 07:58:54;;;;;;;10.05;9.05;;;;;;;;;;5039547;28;20960;-74
2022/10/20 08:01:19;;;;;;;16.65;11.90;;;;;;;;;;5041884;28;20028;-76
2022/10/20 08:03:45;;;;;;;11.73;10.05;;;;;;;;;;5040890;28;20185;-77
2022/10/20 08:06:10;;;;;;;11.40;8.18;;;;;;;;;;5041438;28;20113;-74
2022/10/20 08:08:36;;;;;;;16.48;11.43;;;;;;;;;;5041732;28;20435;-75
2022/10/20 08:11:01;;;;;;;9.77;7.53;;;;;;;;;;5041306;28;20127;-76
2022/10/20 08:13:27;;;;;;;9.13;8.10;;;;;;;;;;5040980;28;20043;-74
2022/10/20 08:15:53;;;;;;;9.90;7.35;;;;;;;;;;5041074;28;20060;-74
2022/10/20 08:18:18;;;;;;;10.43;8.98;;;;;;;;;;5041974;28;20084;-75
2022/10/20 08:20:44;;;;;;;9.18;7.50;;;;;;;;;;5041059;28;20371;-78
2022/10/20 08:23:10;;;;;;;22.10;12.65;;;;;;;;;;5041039;28;20048;-75
2022/10/20 08:25:36;;;;;;;14.52;10.05;;;;;;;;;;5040999;28;20047;-76
2022/10/20 08:28:01;;;;;;;10.18;8.85;;;;;;;;;;5041056;28;20033;-76
2022/10/20 08:30:26;;;;;;;17.05;12.60;;;;;;;;;;5062740;28;20036;-74
2022/10/20 08:32:52;;;;;;;18.60;12.38;;;;;;;;;;5082458;28;20538;-74
2022/10/20 08:35:18;;;;;;;16.67;11.40;;;;;;;;;;5083142;28;20028;-74
2022/10/20 08:37:44;;;;;;;9.05;6.82;;;;;;;;;;5083186;28;20469;-75
2022/10/20 08:40:13;;;;;;;11.20;7.57;;;;;;;;;;5082832;28;20111;-77
2022/10/20 08:42:43;;;;;;;6.75;5.93;;;;;;;;;;5083286;28;20035;-74
2022/10/20 08:45:16;;;;;;;8.02;6.70;;;;;;;;;;5082640;28;20097;-74
2022/10/20 08:47:42;;;;;;;13.52;11.77;;;;;;;;;;5083104;28;20093;-75
2022/10/20 08:50:10;;;;;;;9.18;6.70;;;;;;;;;;5083678;28;20035;-76
2022/10/20 08:52:38;;;;;;;7.85;7.05;;;;;;;;;;5082785;28;20028;-76
2022/10/20 08:55:04;;;;;;;8.45;6.00;;;;;;;;;;5082203;28;20341;-76
2022/10/20 08:57:30;;;;;;;7.68;5.97;;;;;;;;;;5084030;28;20035;-77
2022/10/20 09:00:19;;;;;;;7.05;6.28;;;;;;;;;;5082039;28;20084;-74
2022/10/20 09:02:45;;;;;;;6.95;5.75;;;;;;;;;;5073971;28;20028;-75
2022/10/20 09:05:12;;;;;;;6.88;5.85;;;;;;;;;;5082294;28;20035;-74
2022/10/20 09:07:38;;;;;;;7.35;5.55;;;;;;;;;;5082273;28;20055;-76
2022/10/20 09:10:13;;;;;;;7.30;5.57;;;;;;;;;;5082535;28;20038;-75
2022/10/20 09:12:42;;;;;;;6.72;6.03;;;;;;;;;;5082588;28;20095;-76
2022/10/20 09:15:07;;;;;;;;;;;;;;;;;;5082389;28;20095;-74
2022/10/20 09:17:33;;;;;;;6.60;4.93;;;;;;;;;;5081755;28;20019;-74
2022/10/20 09:19:59;;;;;;;5.22;4.72;;;;;;;;;;5081969;28;20008;-76
2022/10/20 09:22:26;;;;;;;7.25;5.43;;;;;;;;;;5082663;28;20031;-75
2022/10/20 09:24:54;;;;;;;7.28;5.85;;;;;;;;;;5080347;28;20028;-74
2022/10/20 09:27:21;;;;;;;6.65;6.05;;;;;;;;;;5082546;28;20020;-75
2022/10/20 09:29:47;;;;;;;6.60;5.75;;;;;;;;;;5080438;28;20609;-76
2022/10/20 09:32:16;;;;;;;7.15;5.78;;;;;;;;;;5082547;28;20584;-75
2022/10/20 09:34:41;;;;;;;;;;;;;;;;;;5082307;28;20068;-75
2022/10/20 09:37:06;;;;;;;9.90;7.80;;;;;;;;;;5082296;28;19939;-74
2022/10/20 09:39:38;;;;;;;7.93;6.10;;;;;;;;;;5082628;28;20717;-76
2022/10/20 09:42:11;;;;;;;6.05;4.90;;;;;;;;;;5082285;28;20404;-74
2022/10/20 09:44:48;;;;;;;7.13;5.22;;;;;;;;;;5082023;28;20035;-75
2022/10/20 09:47:14;;;;;;;6.05;5.38;;;;;;;;;;5082451;28;20028;-73
2022/10/20 09:49:41;;;;;;;7.50;5.65;;;;;;;;;;5083170;28;20067;-76
2022/10/20 09:52:16;;;;;;;7.25;6.05;;;;;;;;;;5082312;28;20036;-74
2022/10/20 09:54:44;;;;;;;6.38;5.50;;;;;;;;;;5082206;28;20024;-76
2022/10/20 09:57:15;;;;;;;6.65;5.70;;;;;;;;;;5081944;28;20020;-76
2022/10/20 09:59:44;;;;;;;6.90;4.53;;;;;;;;;;5081658;28;20160;-74
2022/10/20 10:02:13;;;;;;;12.90;4.95;;;;;;;;;;5080205;28;20396;-74
2022/10/20 10:04:39;;;;;;;5.65;5.15;;;;;;;;;;5081316;28;20108;-76
2022/10/20 10:07:25;;;;;;;6.53;5.15;;;;;;;;;;5080938;28;20048;-74
2022/10/20 10:10:00;;;;;;;5.75;5.28;;;;;;;;;;5079634;28;20036;-73
2022/10/20 10:12:27;;;;;;;7.38;4.18;;;;;;;;;;5080891;28;20016;-73
2022/10/20 10:14:54;;;;;;;5.65;4.13;;;;;;;;;;5081482;28;20098;-76
2022/10/20 10:17:33;;;;;;;5.25;4.63;;;;;;;;;;5080885;28;20032;-78
2022/10/20 10:20:00;;;;;;;4.90;4.28;;;;;;;;;;5080546;28;20545;-75
2022/10/20 10:22:26;;;;;;;4.68;4.22;;;;;;;;;;5081417;28;20090;-76
2022/10/20 10:24:53;;;;;;;5.10;4.25;;;;;;;;;;5081609;28;20028;-75
2022/10/20 10:27:29;;;;;;;6.55;5.35;;;;;;;;;;5080939;28;20410;-74
2022/10/20 10:29:55;;;;;;;5.45;4.78;;;;;;;;;;5081172;28;20035;-75
2022/10/20 10:32:23;;;;;;;4.63;4.15;;;;;;;;;;5082096;28;21167;-75
2022/10/20 10:35:07;;;;;;;8.07;5.15;;;;;;;;;;5081421;28;20082;-76
2022/10/20 10:37:33;;;;;;;7.15;4.72;;;;;;;;;;5080968;28;20107;-77
2022/10/20 10:39:58;;;;;;;7.88;5.40;;;;;;;;;;5082223;28;20118;-75
2022/10/20 10:42:30;;;;;;;5.68;4.30;;;;;;;;;;5081573;28;20433;-76
2022/10/20 10:45:14;;;;;;;4.10;3.70;;;;;;;;;;5080711;28;20513;-75
2022/10/20 10:47:42;;;;;;;5.35;4.50;;;;;;;;;;5080509;28;20034;-74
2022/10/20 10:50:24;;;;;;;5.10;4.05;;;;;;;;;;5081103;28;20035;-74
2022/10/20 10:52:57;;;;;;;4.80;4.30;;;;;;;;;;5080856;28;20028;-76
2022/10/20 10:55:29;;;;;;;6.43;4.18;;;;;;;;;;5080332;28;20030;-75
2022/10/20 10:58:01;;;;;;;6.15;4.40;;;;;;;;;;5081254;28;20173;-76
2022/10/20 11:00:45;;;;;;;4.93;3.45;;;;;;;;;;5074392;28;20501;-76
2022/10/20 11:03:17;;;;;;;6.32;4.18;;;;;;;;;;5066255;28;20024;-75
2022/10/20 11:06:00;;;;;;;5.88;5.15;;;;;;;;;;5067766;28;20417;-75
2022/10/20 11:08:33;;;;;;;9.52;4.70;;;;;;;;;;5066667;28;20434;-77
2022/10/20 11:11:07;;;;;;;5.43;3.75;;;;;;;;;;5067774;28;20063;-76
2022/10/20 11:13:42;;;;;;;6.40;4.47;;;;;;;;;;5065461;28;20367;-76
2022/10/20 11:16:17;;;;;;;5.22;3.97;;;;;;;;;;5066773;28;20907;-75
2022/10/20 11:19:01;;;;;;;5.88;3.95;;;;;;;;;;5066464;28;20030;-77
2022/10/20 11:21:35;;;;;;;5.20;4.25;;;;;;;;;;5066071;28;20039;-74
2022/10/20 11:24:19;;;;;;;4.82;3.90;;;;;;;;;;5068003;28;20081;-76
2022/10/20 11:26:49;;;;;;;6.65;4.60;;;;;;;;;;5066996;28;20040;-74
2022/10/20 11:29:30;;;;;;;6.25;4.15;;;;;;;;;;5068146;28;20427;-76
2022/10/20 11:32:15;;;;;;;5.47;4.35;;;;;;;;;;5069481;28;21110;-76
2022/10/20 11:34:50;;;;;;;7.32;4.50;;;;;;;;;;5069996;28;20542;-74
2022/10/20 11:37:18;;;;;;;5.05;4.20;;;;;;;;;;5070003;28;20093;-76
2022/10/20 11:40:03;;;;;;;5.93;4.45;;;;;;;;;;5070088;28;20024;-75
2022/10/20 11:42:46;;;;;;;14.50;4.20;;;;;;;;;;5070657;28;20101;-74
2022/10/20 11:45:24;;;;;;;6.40;4.40;;;;;;;;;;5069999;28;20106;-76
2022/10/20 11:48:15;;;;;;;4.72;3.95;;;;;;;;;;5075068;28;20051;-75
2022/10/20 11:50:46;;;;;;;5.25;4.10;;;;;;;;;;5045745;28;20048;-76
2022/10/20 11:53:12;;;;;;;4.00;3.70;;;;;;;;;;5070157;28;20024;-75
2022/10/20 11:55:40;;;;;;;4.30;3.90;;;;;;;;;;5071788;28;20034;-74
2022/10/20 11:58:15;;;;;;;6.53;4.40;;;;;;;;;;5070002;28;20081;-75
2022/10/20 12:00:52;;;;;;;5.05;4.32;;;;;;;;;;5070603;28;20039;-75
2022/10/20 12:03:27;;;;;;;6.20;4.95;;;;;;;;;;5069216;28;20031;-77
2022/10/20 12:06:11;;;;;;;5.80;4.72;;;;;;;;;;5067976;28;20040;-76
2022/10/20 12:08:55;;;;;;;5.88;4.18;;;;;;;;;;5070785;28;20024;-75
2022/10/20 12:11:32;;;;;;;5.57;4.60;;;;;;;;;;5069785;28;20020;-76
2022/10/20 12:14:07;;;;;;;4.47;3.75;;;;;;;;;;5069873;28;20031;-75
2022/10/20 12:16:50;;;;;;;4.22;3.78;;;;;;;;;;5069709;28;20038;-75
2022/10/20 12:19:20;;;;;;;5.22;4.28;;;;;;;;;;5070223;28;20069;-75
2022/10/20 12:21:57;;;;;;;8.18;4.30;;;;;;;;;;5069155;28;20028;-76
2022/10/20 12:24:32;;;;;;;6.07;4.70;;;;;;;;;;5079343;28;20028;-74
2022/10/20 12:27:16;;;;;;;5.15;4.65;;;;;;;;;;5080644;28;20039;-75
2022/10/20 12:29:41;;;;;;;6.03;5.20;;;;;;;;;;5069141;28;20051;-77
2022/10/20 12:32:25;;;;;;;6.63;4.50;;;;;;;;;;5069948;28;20363;-74
2022/10/20 12:34:52;;;;;;;6.50;5.20;;;;;;;;;;5069476;28;20443;-75
2022/10/20 12:37:25;;;;;;;6.70;5.07;;;;;;;;;;5068881;28;20039;-76
2022/10/20 12:40:11;;;;;;;5.90;5.20;;;;;;;;;;5068837;28;20024;-74
2022/10/20 12:42:38;;;;;;;7.07;4.55;;;;;;;;;;5048146;28;20104;-74
2022/10/20 12:45:03;;;;;;;10.77;5.28;;;;;;;;;;5069340;28;20039;-76
2022/10/20 12:47:30;;;;;;;5.40;4.90;;;;;;;;;;5068281;28;20802;-75
2022/10/20 12:50:03;;;;;;;5.38;4.80;;;;;;;;;;5069915;28;20027;-74
2022/10/20 12:52:31;;;;;;;5.25;4.85;;;;;;;;;;5068910;28;20034;-75
2022/10/20 12:55:12;;;;;;;7.18;6.13;;;;;;;;;;5068910;28;20028;-74
2022/10/20 12:57:41;;;;;;;6.18;4.80;;;;;;;;;;5066477;28;20052;-75
2022/10/20 13:00:07;;;;;;;;;;;;;;;;;;5069793;28;20024;-75
2022/10/20 13:02:42;;;;;;;6.07;5.47;;;;;;;;;;5069162;28;20393;-75
2022/10/20 13:05:07;;;;;;;6.32;5.60;;;;;;;;;;5069410;28;20016;-74
2022/10/20 13:07:44;;;;;;;7.35;5.47;;;;;;;;;;5069159;28;20028;-78
2022/10/20 13:10:25;;;;;;;5.82;5.18;;;;;;;;;;5067655;28;20028;-76
2022/10/20 13:12:51;;;;;;;5.80;5.30;;;;;;;;;;5067582;28;20023;-74
2022/10/20 13:15:18;;;;;;;6.32;5.57;;;;;;;;;;5069055;28;20032;-75
2022/10/20 13:17:49;;;;;;;6.05;5.50;;;;;;;;;;5068975;28;20066;-75
2022/10/20 13:20:21;;;;;;;12.85;6.50;;;;;;;;;;5069307;28;20039;-74
2022/10/20 13:22:50;;;;;;;7.57;6.80;;;;;;;;;;5073624;28;20031;-74
2022/10/20 13:25:18;;;;;;;6.00;5.50;;;;;;;;;;5067813;28;20076;-76
2022/10/20 13:27:46;;;;;;;11.32;8.55;;;;;;;;;;5067976;28;20478;-74
2022/10/20 13:30:17;;;;;;;7.40;6.57;;;;;;;;;;5064964;28;20020;-77
2022/10/20 13:32:51;;;;;;;8.15;7.05;;;;;;;;;;5066921;28;20054;-75
2022/10/20 13:35:32;;;;;;;6.68;6.07;;;;;;;;;;5068621;28;20028;-76
2022/10/20 13:38:00;;;;;;;11.10;7.10;;;;;;;;;;5074237;28;20135;-74
2022/10/20 13:40:38;;;;;;;8.87;7.57;;;;;;;;;;5080244;28;20043;-75
2022/10/20 13:43:22;;;;;;;8.18;7.38;;;;;;;;;;5067277;28;20042;-76
2022/10/20 13:45:47;;;;;;;7.93;7.03;;;;;;;;;;5066572;28;20036;-75
2022/10/20 13:48:31;;;;;;;8.15;6.28;;;;;;;;;;5073954;28;20350;-74
2022/10/20 13:51:05;;;;;;;9.10;5.82;;;;;;;;;;5072123;28;20107;-73
2022/10/20 13:53:32;;;;;;;6.45;5.70;;;;;;;;;;5079034;28;20031;-72
2022/10/20 13:56:01;;;;;;;12.07;6.30;;;;;;;;;;5081432;28;20032;-75
2022/10/20 13:58:26;;;;;;;7.63;6.93;;;;;;;;;;5077554;28;20027;-76
2022/10/20 14:00:56;;;;;;;6.43;5.88;;;;;;;;;;5068465;28;20020;-76
2022/10/20 14:03:22;;;;;;;6.82;5.65;;;;;;;;;;5065178;28;20024;-73
2022/10/20 14:05:47;;;;;;;10.55;6.65;;;;;;;;;;5065044;28;20040;-72
2022/10/20 14:08:13;;;;;;;7.88;7.15;;;;;;;;;;5064331;28;20032;-74
2022/10/20 14:10:43;;;;;;;8.25;6.53;;;;;;;;;;5067398;28;20039;-71
2022/10/20 14:13:12;;;;;;;10.25;8.20;;;;;;;;;;5077778;28;20114;-71
2022/10/20 14:15:37;;;;;;;8.55;7.70;;;;;;;;;;5077547;28;20339;-73
2022/10/20 14:18:04;;;;;;;8.18;7.38;;;;;;;;;;5078004;28;20035;-75
2022/10/20 14:20:30;;;;;;;7.75;7.05;;;;;;;;;;5076030;28;20024;-73
2022/10/20 14:22:57;;;;;;;7.05;6.18;;;;;;;;;;5064719;28;20106;-73
2022/10/20 14:25:22;;;;;;;6.45;5.78;;;;;;;;;;5064882;28;20347;-72
2022/10/20 14:27:50;;;;;;;7.03;6.20;;;;;;;;;;5070442;28;20024;-73
2022/10/20 14:30:16;;;;;;;9.35;6.32;;;;;;;;;;5079599;28;20056;-72
2022/10/20 14:32:43;;;;;;;7.07;5.95;;;;;;;;;;5079255;28;20024;-71
2022/10/20 14:35:17;;;;;;;7.05;6.07;;;;;;;;;;5080074;28;20036;-74
2022/10/20 14:37:52;;;;;;;8.30;7.60;;;;;;;;;;5071430;28;20512;-74